Time;durP1;ratioP1;P1;durP2;ratioP2;P2;SDS_P1;SDS_P2;PMS_P1;PMS_P2;Temp;Humidity;BMP_temperature;BMP_pressure;BME280_temperature;BME280_humidity;BME280_pressure;Samples;Min_cycle;Max_cycle;Signal;HPM_P1;HPM_P2
2021/09/20 00:01:52;;;;;;;44.40;20.77;;;;;;;8.87;80.73;100832.80;1617945;88;21042;-78
2021/09/20 00:04:18;;;;;;;46.35;19.67;;;;;;;8.89;80.85;100830.84;1610419;88;21545;-79
2021/09/20 00:06:44;;;;;;;42.58;20.30;;;;;;;8.92;80.88;100833.20;1564909;91;21094;-78
2021/09/20 00:09:10;;;;;;;41.42;18.98;;;;;;;8.94;80.91;100837.87;1604713;89;21541;-78
2021/09/20 00:11:36;;;;;;;32.90;17.57;;;;;;;8.96;80.93;100841.23;1606965;87;21932;-77
2021/09/20 00:14:02;;;;;;;34.85;17.45;;;;;;;8.95;80.96;100835.56;1609591;88;21043;-77
2021/09/20 00:16:28;;;;;;;54.15;21.00;;;;;;;8.95;81.00;100834.23;1566465;91;21063;-77
2021/09/20 00:18:54;;;;;;;93.95;30.50;;;;;;;8.96;81.03;100838.58;1609583;88;21050;-78
2021/09/20 00:21:20;;;;;;;116.10;35.30;;;;;;;8.97;81.07;100838.93;1594031;90;21054;-77
2021/09/20 00:23:46;;;;;;;118.65;36.38;;;;;;;8.97;81.10;100844.25;1615055;88;21203;-77
2021/09/20 00:26:12;;;;;;;127.17;37.17;;;;;;;8.87;81.13;100816.84;1614707;88;21012;-77
2021/09/20 00:28:38;;;;;;;126.07;36.28;;;;;;;9.00;81.19;100838.62;1614803;88;22162;-77
2021/09/20 00:31:04;;;;;;;85.47;28.05;;;;;;;9.01;81.21;100836.28;1614866;88;21634;-77
2021/09/20 00:33:30;;;;;;;97.00;30.12;;;;;;;9.03;81.23;100837.00;1614805;88;21063;-77
2021/09/20 00:35:56;;;;;;;82.65;28.15;;;;;;;9.06;81.25;100837.18;1614746;88;21052;-77
2021/09/20 00:38:23;;;;;;;78.30;29.32;;;;;;;9.08;81.28;100842.69;1614682;88;21084;-77
2021/09/20 00:40:49;;;;;;;117.28;50.58;;;;;;;9.11;81.29;100843.74;1615234;88;21486;-77
2021/09/20 00:43:15;;;;;;;95.65;40.45;;;;;;;9.14;81.31;100842.11;1614626;88;21626;-77
2021/09/20 00:45:41;;;;;;;60.90;25.52;;;;;;;9.14;81.34;100840.78;1614882;88;21079;-78
2021/09/20 00:48:07;;;;;;;61.25;25.12;;;;;;;9.17;81.37;100837.81;1614707;88;21185;-77
2021/09/20 00:50:33;;;;;;;63.42;23.35;;;;;;;9.18;81.40;100842.16;1614802;88;21084;-77
2021/09/20 00:52:59;;;;;;;37.83;19.50;;;;;;;9.21;81.41;100846.34;1614751;88;21089;-78
2021/09/20 00:55:25;;;;;;;34.25;14.50;;;;;;;9.24;81.42;100852.20;1614907;88;21537;-77
2021/09/20 00:57:51;;;;;;;22.42;13.38;;;;;;;9.22;81.45;100842.17;1614744;88;21045;-78
2021/09/20 01:00:17;;;;;;;23.40;13.38;;;;;;;9.21;81.48;100844.52;1614804;88;22136;-77
2021/09/20 01:02:44;;;;;;;28.85;13.88;;;;;;;9.22;81.50;100847.50;1614694;88;21084;-77
2021/09/20 01:05:10;;;;;;;27.52;14.03;;;;;;;9.22;81.53;100844.84;1614129;88;21072;-77
2021/09/20 01:07:37;;;;;;;23.02;13.93;;;;;;;9.20;81.55;100845.49;1614750;88;21047;-77
2021/09/20 01:10:04;;;;;;;22.40;12.90;;;;;;;9.21;81.59;100843.19;1614790;88;21116;-77
2021/09/20 01:12:30;;;;;;;20.17;12.18;;;;;;;9.21;81.58;100839.69;1614600;87;21517;-77
2021/09/20 01:14:57;;;;;;;22.30;13.35;;;;;;;9.21;81.59;100836.53;1614744;88;20929;-77
2021/09/20 01:17:23;;;;;;;27.40;14.07;;;;;;;9.21;81.60;100836.53;1614593;88;21068;-77
2021/09/20 01:19:49;;;;;;;31.10;15.45;;;;;;;9.20;81.62;100836.18;1614636;88;21048;-77
2021/09/20 01:22:17;;;;;;;21.73;12.73;;;;;;;9.20;81.61;100840.17;1614597;88;21052;-77
2021/09/20 01:24:44;;;;;;;20.48;13.78;;;;;;;9.22;81.60;100839.52;1614759;88;21944;-77
2021/09/20 01:27:11;;;;;;;25.43;13.48;;;;;;;9.24;81.62;100840.22;1592969;88;21092;-77
2021/09/20 01:29:37;;;;;;;22.42;13.80;;;;;;;9.23;81.64;100838.53;1615017;88;21085;-77
2021/09/20 01:32:04;;;;;;;21.85;14.30;;;;;;;9.22;81.63;100840.84;1614522;88;21618;-77
2021/09/20 01:34:31;;;;;;;23.77;12.85;;;;;;;9.22;81.65;100839.52;1614683;88;21560;-77
2021/09/20 01:36:57;;;;;;;21.10;12.33;;;;;;;9.21;81.65;100843.19;1614831;88;21192;-77
2021/09/20 01:39:26;;;;;;;24.30;12.13;;;;;;;9.23;81.66;100843.02;1613963;88;21079;-77
2021/09/20 01:41:52;;;;;;;18.05;12.20;;;;;;;9.25;81.65;100843.72;1614976;88;21052;-77
2021/09/20 01:44:19;;;;;;;20.60;13.05;;;;;;;9.24;81.63;100845.55;1614586;88;21041;-77
2021/09/20 01:46:47;;;;;;;19.55;10.68;;;;;;;9.27;81.63;100846.56;1591754;88;21131;-77
2021/09/20 01:49:13;;;;;;;18.80;10.95;;;;;;;9.29;81.65;100844.58;1613971;88;21314;-77
2021/09/20 01:51:39;;;;;;;20.25;11.45;;;;;;;9.30;81.65;100834.77;1614771;88;21017;-77
2021/09/20 01:54:05;;;;;;;19.82;11.38;;;;;;;9.31;81.64;100837.30;1614841;88;21635;-77
2021/09/20 01:56:32;;;;;;;17.37;11.88;;;;;;;9.31;81.62;100834.64;1614467;88;21522;-77
2021/09/20 01:58:59;;;;;;;17.82;10.70;;;;;;;9.30;81.63;100834.28;1614723;88;20981;-77
2021/09/20 02:01:25;;;;;;;19.65;10.40;;;;;;;9.30;81.59;100834.28;1614422;88;21150;-77
2021/09/20 02:03:52;;;;;;;21.40;11.45;;;;;;;9.29;81.58;100833.94;1614827;88;21565;-77
2021/09/20 02:06:19;;;;;;;17.62;11.28;;;;;;;9.32;81.56;100832.82;1614509;88;21504;-77
2021/09/20 02:08:45;;;;;;;18.42;10.82;;;;;;;9.30;81.56;100830.30;1614694;88;21101;-77
2021/09/20 02:11:11;;;;;;;18.77;10.05;;;;;;;9.32;81.53;100825.64;1614668;87;21072;-77
2021/09/20 02:13:37;;;;;;;16.70;11.43;;;;;;;9.30;81.52;100830.30;1614549;88;21195;-77
2021/09/20 02:16:04;;;;;;;16.23;10.00;;;;;;;9.31;81.51;100826.66;1614529;88;21037;-77
2021/09/20 02:18:30;;;;;;;16.17;10.08;;;;;;;9.31;81.47;100823.16;1614533;88;21706;-77
2021/09/20 02:20:56;;;;;;;14.30;10.00;;;;;;;9.32;81.46;100827.49;1614405;88;21580;-77
2021/09/20 02:23:22;;;;;;;14.80;9.70;;;;;;;9.33;81.47;100827.33;1614473;88;21528;-77
2021/09/20 02:25:48;;;;;;;17.50;10.08;;;;;;;9.33;81.44;100832.65;1614556;88;21841;-77
2021/09/20 02:28:14;;;;;;;14.33;8.93;;;;;;;9.36;81.44;100832.83;1614593;88;21017;-77
2021/09/20 02:30:40;;;;;;;14.63;9.95;;;;;;;9.36;81.43;100832.34;1614628;88;21055;-77
2021/09/20 02:33:06;;;;;;;18.62;9.93;;;;;;;9.36;81.40;100832.34;1614800;88;21053;-77
2021/09/20 02:35:32;;;;;;;19.70;9.63;;;;;;;9.34;81.38;100830.34;1614574;88;21032;-77
2021/09/20 02:37:58;;;;;;;16.77;9.30;;;;;;;9.33;81.37;100822.00;1614705;88;21786;-77
2021/09/20 02:40:24;;;;;;;12.95;8.43;;;;;;;9.32;81.35;100826.97;1614460;88;21024;-77
2021/09/20 02:42:50;;;;;;;17.73;9.35;;;;;;;9.33;81.32;100829.98;1614712;88;20921;-77
2021/09/20 02:45:16;;;;;;;15.75;9.38;;;;;;;9.36;81.34;100828.34;1614562;88;21057;-77
2021/09/20 02:47:42;;;;;;;16.35;9.00;;;;;;;9.36;81.33;100829.68;1614547;88;21199;-77
2021/09/20 02:50:10;;;;;;;13.83;9.13;;;;;;;9.38;81.32;100825.06;1614694;88;21173;-77
2021/09/20 02:52:36;;;;;;;14.47;8.75;;;;;;;9.40;81.31;100833.72;1614519;88;21536;-78
2021/09/20 02:55:04;;;;;;;15.05;8.68;;;;;;;9.41;81.31;100832.73;1614771;88;21076;-77
2021/09/20 02:57:30;;;;;;;15.65;9.03;;;;;;;9.42;81.29;100839.75;1614589;88;21044;-77
2021/09/20 02:59:56;;;;;;;14.68;8.98;;;;;;;9.42;81.28;100833.09;1614539;88;21065;-77
2021/09/20 03:02:22;;;;;;;14.40;8.78;;;;;;;9.41;81.31;100832.73;1614620;88;21172;-77
2021/09/20 03:04:48;;;;;;;16.65;9.53;;;;;;;9.42;81.29;100836.24;1614572;88;21080;-77
2021/09/20 03:07:14;;;;;;;14.55;8.75;;;;;;;9.42;81.31;100839.75;1614460;88;21080;-77
2021/09/20 03:09:40;;;;;;;14.03;8.20;;;;;;;9.44;81.30;100845.73;1614679;88;21645;-77
2021/09/20 03:12:06;;;;;;;14.55;8.70;;;;;;;9.41;81.28;100842.05;1614806;87;21430;-77
2021/09/20 03:14:32;;;;;;;12.47;7.80;;;;;;;9.39;81.28;100848.00;1614771;88;21335;-77
2021/09/20 03:16:58;;;;;;;12.53;8.40;;;;;;;9.29;81.23;100830.47;1614607;88;21701;-77
2021/09/20 03:19:24;;;;;;;13.88;7.87;;;;;;;9.29;81.23;100830.47;1613750;88;21757;-77
2021/09/20 03:21:50;;;;;;;15.45;7.62;;;;;;;9.37;81.25;100847.82;1619538;88;21151;-77
2021/09/20 03:24:16;;;;;;;10.38;6.75;;;;;;;9.36;81.25;100846.98;1619486;88;21040;-77
2021/09/20 03:26:42;;;;;;;16.02;7.80;;;;;;;9.36;81.24;100846.98;1619667;88;21190;-77
2021/09/20 03:29:08;;;;;;;10.40;7.15;;;;;;;9.36;81.23;100849.64;1619642;88;20993;-77
2021/09/20 03:31:34;;;;;;;13.80;8.10;;;;;;;9.36;81.23;100848.31;1619059;88;21047;-77
2021/09/20 03:34:00;;;;;;;12.85;7.60;;;;;;;9.36;81.22;100853.63;1619574;88;21119;-77
2021/09/20 03:36:26;;;;;;;13.72;7.35;;;;;;;9.35;81.18;100858.64;1619450;88;21493;-77
2021/09/20 03:38:52;;;;;;;12.85;7.83;;;;;;;9.34;81.18;100862.28;1619665;88;21793;-77
2021/09/20 03:41:18;;;;;;;13.05;6.85;;;;;;;9.33;81.18;100857.94;1619503;88;21028;-77
2021/09/20 03:43:45;;;;;;;14.35;7.53;;;;;;;9.32;81.18;100868.23;1619420;88;21036;-77
2021/09/20 03:46:11;;;;;;;16.93;8.78;;;;;;;9.31;81.16;100863.91;1619310;88;21131;-77
2021/09/20 03:48:37;;;;;;;16.02;10.28;;;;;;;9.30;81.15;100863.56;1619608;88;21084;-77
2021/09/20 03:51:04;;;;;;;22.77;9.20;;;;;;;9.29;81.12;100864.54;1619786;88;21214;-77
2021/09/20 03:53:30;;;;;;;13.03;8.93;;;;;;;9.27;81.10;100867.86;1619616;88;21104;-77
2021/09/20 03:55:56;;;;;;;16.48;9.63;;;;;;;9.26;81.09;100870.17;1619543;88;21705;-77
2021/09/20 03:58:22;;;;;;;15.78;7.58;;;;;;;9.26;81.07;100867.50;1619401;88;21044;-77
2021/09/20 04:00:48;;;;;;;15.18;8.23;;;;;;;9.27;81.06;100872.34;1598894;88;21131;-77
2021/09/20 04:03:14;;;;;;;10.82;8.08;;;;;;;9.26;81.02;100876.82;1619275;88;21181;-77
2021/09/20 04:05:40;;;;;;;12.35;8.43;;;;;;;9.27;81.00;100875.84;1619470;88;21039;-77
2021/09/20 04:08:08;;;;;;;11.85;8.18;;;;;;;9.27;81.02;100873.67;1619627;88;21105;-77
2021/09/20 04:10:34;;;;;;;14.33;7.62;;;;;;;9.27;80.98;100872.34;1619233;88;21493;-77
2021/09/20 04:13:00;;;;;;;12.33;6.30;;;;;;;9.25;80.98;100871.67;1619279;87;21095;-77
2021/09/20 04:15:26;;;;;;;12.55;7.72;;;;;;;9.26;80.98;100868.84;1619156;88;21183;-77
2021/09/20 04:17:52;;;;;;;9.30;6.67;;;;;;;9.25;80.95;100873.84;1619491;88;21124;-77
2021/09/20 04:20:18;;;;;;;10.55;7.17;;;;;;;9.25;80.93;100876.98;1616889;88;21501;-77
2021/09/20 04:22:44;;;;;;;11.25;7.20;;;;;;;9.23;80.93;100877.13;1615181;88;21522;-77
2021/09/20 04:25:10;;;;;;;9.78;6.65;;;;;;;9.24;80.91;100881.47;1619287;88;21125;-77
2021/09/20 04:27:36;;;;;;;15.15;7.12;;;;;;;9.24;80.89;100881.47;1618881;88;21155;-77
2021/09/20 04:30:04;;;;;;;12.15;6.60;;;;;;;9.24;80.90;100886.79;1619151;88;21099;-77
2021/09/20 04:32:30;;;;;;;12.43;6.78;;;;;;;9.23;80.89;100882.45;1618980;88;21100;-78
2021/09/20 04:34:56;;;;;;;13.22;7.95;;;;;;;9.25;80.89;100887.14;1619287;88;21052;-77
2021/09/20 04:37:22;;;;;;;11.93;7.33;;;;;;;9.26;80.88;100885.30;1619282;88;21121;-77
2021/09/20 04:39:48;;;;;;;12.58;7.17;;;;;;;9.23;80.88;100887.77;1619325;88;22238;-77
2021/09/20 04:42:14;;;;;;;15.65;6.80;;;;;;;9.24;80.89;100890.78;1619313;88;21099;-77
2021/09/20 04:44:40;;;;;;;15.78;7.12;;;;;;;9.26;80.88;100888.80;1619055;88;21092;-77
2021/09/20 04:47:07;;;;;;;11.08;8.08;;;;;;;9.29;80.86;100889.83;1619475;88;21513;-77
2021/09/20 04:49:33;;;;;;;13.10;7.87;;;;;;;9.30;80.85;100888.00;1618837;88;21051;-77
2021/09/20 04:51:59;;;;;;;13.65;8.00;;;;;;;9.28;80.85;100888.17;1619272;88;21596;-77
2021/09/20 04:54:25;;;;;;;17.67;8.38;;;;;;;9.33;80.84;100895.20;1619178;88;21047;-77
2021/09/20 04:56:51;;;;;;;13.72;7.97;;;;;;;9.36;80.83;100890.90;1619197;88;20960;-77
2021/09/20 04:59:17;;;;;;;16.32;7.62;;;;;;;9.37;80.83;100892.58;1619118;88;21072;-77
2021/09/20 05:01:43;;;;;;;12.43;8.23;;;;;;;9.38;80.81;100895.59;1619364;88;21132;-77
2021/09/20 05:04:10;;;;;;;14.15;9.10;;;;;;;9.40;80.81;100894.94;1619219;88;21192;-77
2021/09/20 05:06:37;;;;;;;18.65;9.05;;;;;;;9.40;80.78;100894.94;1619316;88;21514;-77
2021/09/20 05:09:03;;;;;;;22.32;11.85;;;;;;;9.43;80.78;100895.97;1619349;88;21108;-77
2021/09/20 05:11:31;;;;;;;19.77;10.90;;;;;;;9.44;80.79;100896.32;1618918;87;21059;-77
2021/09/20 05:13:57;;;;;;;20.92;11.38;;;;;;;9.43;80.76;100899.96;1620227;88;21519;-77
2021/09/20 05:16:23;;;;;;;20.95;11.18;;;;;;;9.42;80.76;100904.96;1626437;88;22084;-77
2021/09/20 05:18:49;;;;;;;16.00;9.93;;;;;;;9.44;80.73;100900.80;1626418;88;20948;-77
2021/09/20 05:21:15;;;;;;;15.45;9.28;;;;;;;9.45;80.71;100901.16;1609349;87;21090;-77
2021/09/20 05:23:43;;;;;;;15.35;8.73;;;;;;;9.47;80.71;100901.83;1624998;88;21030;-77
2021/09/20 05:26:09;;;;;;;18.55;10.13;;;;;;;9.47;80.71;100905.33;1616179;88;21002;-77
2021/09/20 05:28:35;;;;;;;17.00;9.40;;;;;;;9.49;80.70;100899.38;1551097;91;21821;-77
2021/09/20 05:31:01;;;;;;;15.05;9.10;;;;;;;9.50;80.68;100903.70;1612759;89;21366;-77
2021/09/20 05:33:30;;;;;;;18.37;9.75;;;;;;;9.51;80.66;100905.38;1574478;91;20954;-77
2021/09/20 05:35:55;;;;;;;20.95;8.90;;;;;;;9.51;80.65;100908.05;1581205;89;21093;-77
2021/09/20 05:38:21;;;;;;;14.28;8.28;;;;;;;9.43;80.68;100890.64;1636120;87;20903;-77
2021/09/20 05:40:47;;;;;;;11.53;7.60;;;;;;;9.43;80.68;100890.64;1596957;89;21154;-77
2021/09/20 05:43:13;;;;;;;21.15;9.08;;;;;;;9.54;80.60;100909.06;1631943;87;20964;-77
2021/09/20 05:45:39;;;;;;;18.27;8.83;;;;;;;9.59;80.60;100907.78;1632141;87;20982;-77
2021/09/20 05:48:05;;;;;;;15.78;9.33;;;;;;;9.50;80.56;100894.37;1651927;86;21622;-77
2021/09/20 05:50:31;;;;;;;16.00;8.50;;;;;;;9.65;80.58;100913.83;1648453;86;21530;-78
2021/09/20 05:52:57;;;;;;;19.27;9.83;;;;;;;9.66;80.58;100920.84;1642135;86;21884;-78
2021/09/20 05:55:23;;;;;;;15.23;9.60;;;;;;;9.69;80.56;100916.53;1641369;87;21093;-78
2021/09/20 05:57:50;;;;;;;17.60;8.65;;;;;;;9.70;80.54;100920.88;1647612;86;21102;-77
2021/09/20 06:00:16;;;;;;;20.72;8.58;;;;;;;9.69;80.53;100919.20;1647621;86;21779;-77
2021/09/20 06:02:42;;;;;;;13.13;7.53;;;;;;;9.70;80.54;100923.05;1646131;86;21098;-77
2021/09/20 06:05:11;;;;;;;20.40;8.98;;;;;;;9.70;80.50;100922.22;1643817;86;21965;-77
2021/09/20 06:07:37;;;;;;;15.83;9.53;;;;;;;9.71;80.48;100930.55;1649623;85;21114;-77
2021/09/20 06:10:04;;;;;;;21.07;9.85;;;;;;;9.73;80.43;100928.08;1646040;87;21030;-78
2021/09/20 06:12:30;;;;;;;19.52;8.98;;;;;;;9.78;80.44;100930.30;1635318;87;21523;-77
2021/09/20 06:14:56;;;;;;;17.32;9.10;;;;;;;9.81;80.39;100933.48;1626012;88;21046;-77
2021/09/20 06:17:22;;;;;;;17.52;7.90;;;;;;;9.84;80.38;100935.00;1635847;86;21549;-77
2021/09/20 06:19:48;;;;;;;23.80;9.28;;;;;;;9.84;80.37;100937.18;1614597;87;20970;-77
2021/09/20 06:22:14;;;;;;;13.25;7.75;;;;;;;9.84;80.32;100935.84;1646574;87;21063;-77
2021/09/20 06:24:41;;;;;;;14.18;7.62;;;;;;;9.83;80.29;100942.64;1646302;87;21496;-77
2021/09/20 06:27:07;;;;;;;13.90;8.45;;;;;;;9.83;80.28;100943.48;1646719;87;21067;-77
2021/09/20 06:29:33;;;;;;;17.52;9.08;;;;;;;9.85;80.25;100942.02;1646518;87;21232;-77
2021/09/20 06:31:59;;;;;;;15.65;9.63;;;;;;;9.87;80.21;100945.35;1646578;87;21040;-78
2021/09/20 06:34:26;;;;;;;18.42;9.88;;;;;;;9.89;80.17;100950.86;1645799;87;21031;-77
2021/09/20 06:36:52;;;;;;;17.98;8.95;;;;;;;9.91;80.12;100956.05;1646769;87;21512;-77
2021/09/20 06:39:18;;;;;;;21.10;11.12;;;;;;;9.91;80.10;100952.05;1652854;85;21028;-78
2021/09/20 06:41:44;;;;;;;20.85;13.38;;;;;;;9.89;80.05;100957.52;1658522;86;21089;-78
2021/09/20 06:44:10;;;;;;;31.12;16.82;;;;;;;9.91;80.04;100952.05;1664133;85;21341;-78
2021/09/20 06:46:37;;;;;;;20.57;11.75;;;;;;;9.93;79.99;100958.05;1670735;85;21035;-78
2021/09/20 06:49:04;;;;;;;21.42;11.10;;;;;;;9.97;79.98;100962.09;1647780;85;21065;-78
2021/09/20 06:51:30;;;;;;;15.45;10.00;;;;;;;9.99;79.97;100965.47;1647872;86;21024;-77
2021/09/20 06:53:56;;;;;;;13.78;8.95;;;;;;;10.00;79.94;100967.95;1638436;87;21132;-77
2021/09/20 06:56:22;;;;;;;18.17;10.08;;;;;;;10.02;79.89;100965.16;1644912;86;21071;-76
2021/09/20 06:58:48;;;;;;;17.92;9.85;;;;;;;10.07;79.88;100970.84;1653536;85;21031;-77
2021/09/20 07:01:14;;;;;;;20.88;9.98;;;;;;;10.09;79.83;100964.05;1655759;85;21125;-78
2021/09/20 07:03:41;;;;;;;16.57;9.83;;;;;;;10.10;79.80;100965.20;1643396;85;21977;-76
2021/09/20 07:06:07;;;;;;;19.07;11.40;;;;;;;10.12;79.79;100965.91;1642243;85;21099;-77
2021/09/20 07:08:33;;;;;;;18.02;11.35;;;;;;;10.15;79.72;100968.78;1618402;88;21044;-77
2021/09/20 07:10:59;;;;;;;16.23;10.88;;;;;;;10.21;79.70;100967.67;1644594;86;21534;-77
2021/09/20 07:13:25;;;;;;;18.52;10.75;;;;;;;10.28;79.65;100968.73;1650819;85;21028;-77
2021/09/20 07:15:52;;;;;;;15.80;9.78;;;;;;;10.36;79.63;100970.14;1641224;85;21083;-76
2021/09/20 07:18:18;;;;;;;15.45;9.80;;;;;;;10.41;79.57;100973.69;1606520;88;22001;-78
2021/09/20 07:20:44;;;;;;;14.65;8.78;;;;;;;10.49;79.56;100971.91;1600805;88;21080;-77
2021/09/20 07:23:12;;;;;;;17.75;8.63;;;;;;;10.58;79.54;100974.64;1611107;88;21141;-77
2021/09/20 07:25:38;;;;;;;24.32;8.63;;;;;;;10.64;79.48;100979.34;1615939;88;21046;-78
2021/09/20 07:28:04;;;;;;;20.65;9.80;;;;;;;10.68;79.43;100978.04;1616209;88;21075;-77
2021/09/20 07:30:31;;;;;;;16.15;8.93;;;;;;;10.76;79.37;100978.10;1613684;88;21197;-76
2021/09/20 07:32:57;;;;;;;14.55;8.68;;;;;;;10.84;79.31;100976.30;1611731;88;21102;-77
2021/09/20 07:35:23;;;;;;;16.77;10.78;;;;;;;10.96;79.26;100984.89;1612847;88;21530;-76
2021/09/20 07:37:52;;;;;;;12.85;8.33;;;;;;;11.09;79.20;100979.95;1609050;88;21578;-77
2021/09/20 07:40:21;;;;;;;18.73;11.03;;;;;;;11.22;79.12;100976.86;1606321;88;21102;-76
2021/09/20 07:42:47;;;;;;;19.10;10.80;;;;;;;11.36;79.06;100979.77;1610785;88;21087;-75
2021/09/20 07:45:13;;;;;;;19.77;10.80;;;;;;;11.54;78.97;100991.16;1607467;88;21058;-76
2021/09/20 07:47:39;;;;;;;16.57;9.43;;;;;;;11.69;78.88;100985.20;1611557;88;21530;-75
2021/09/20 07:50:06;;;;;;;11.85;8.30;;;;;;;11.83;78.77;100984.60;1611331;88;21019;-76
2021/09/20 07:52:32;;;;;;;15.43;9.28;;;;;;;11.97;78.68;100983.47;1607733;88;21574;-77
2021/09/20 07:54:58;;;;;;;14.98;9.05;;;;;;;12.11;78.56;100977.97;1607363;88;21800;-76
2021/09/20 07:57:25;;;;;;;131.03;45.40;;;;;;;12.26;78.47;100978.99;1611421;88;21105;-76
2021/09/20 07:59:51;;;;;;;39.25;17.45;;;;;;;12.43;78.30;100977.98;1614525;88;21035;-77
2021/09/20 08:02:18;;;;;;;11.40;6.55;;;;;;;12.63;78.18;100985.69;1618734;87;21161;-77
2021/09/20 08:04:45;;;;;;;12.88;5.45;;;;;;;12.74;78.02;100988.83;1584824;89;21182;-77
2021/09/20 08:07:11;;;;;;;9.55;6.72;;;;;;;13.06;77.90;100983.91;1575551;89;21168;-77
2021/09/20 08:09:37;;;;;;;12.95;6.40;;;;;;;13.27;77.61;100984.20;1618895;87;21098;-77
2021/09/20 08:12:04;;;;;;;6.65;4.65;;;;;;;13.41;77.33;100971.42;1600735;88;21070;-77
2021/09/20 08:14:30;;;;;;;6.25;4.92;;;;;;;13.41;77.06;100969.25;1611090;88;21850;-75
2021/09/20 08:16:56;;;;;;;9.05;6.15;;;;;;;13.32;76.85;100972.48;1616929;87;21573;-76
2021/09/20 08:19:22;;;;;;;10.88;6.80;;;;;;;13.42;76.52;100970.42;1583872;90;21178;-77
2021/09/20 08:21:48;;;;;;;11.22;5.37;;;;;;;13.79;76.40;100976.95;1596615;88;21035;-77
2021/09/20 08:24:15;;;;;;;9.40;5.60;;;;;;;14.00;76.07;100974.47;1653138;86;21140;-77
2021/09/20 08:26:41;;;;;;;8.43;4.00;;;;;;;13.82;75.70;100972.07;1654271;85;21071;-77
2021/09/20 08:29:07;;;;;;;13.98;4.80;;;;;;;13.64;75.45;100973.34;1638192;87;21947;-77
2021/09/20 08:31:33;;;;;;;18.55;8.23;;;;;;;13.84;75.31;100978.08;1646860;85;22118;-76
2021/09/20 08:33:59;;;;;;;25.25;11.08;;;;;;;14.05;74.93;100976.09;1647158;86;21057;-77
2021/09/20 08:36:25;;;;;;;20.65;8.68;;;;;;;14.13;74.47;100981.91;1643992;87;21083;-78
2021/09/20 08:38:51;;;;;;;20.95;7.00;;;;;;;14.23;74.02;100983.34;1644356;87;21131;-79
2021/09/20 08:41:17;;;;;;;11.78;5.28;;;;;;;14.24;73.66;100989.05;1644248;87;21345;-78
2021/09/20 08:43:44;;;;;;;18.65;9.58;;;;;;;14.34;73.35;100990.17;1620677;87;21722;-78
2021/09/20 08:46:11;;;;;;;6.42;3.27;;;;;;;14.14;72.59;100973.70;1643978;87;21064;-77
2021/09/20 08:48:42;;;;;;;8.48;4.67;;;;;;;14.31;71.98;100988.66;1644427;85;21584;-77
2021/09/20 08:51:08;;;;;;;16.50;7.58;;;;;;;14.31;71.98;100988.66;1643821;85;21107;-78
2021/09/20 08:53:34;;;;;;;10.05;5.75;;;;;;;14.40;71.80;100996.16;1644101;87;21127;-77
2021/09/20 08:56:00;;;;;;;16.65;8.63;;;;;;;14.45;71.45;100990.59;1644890;86;21675;-79
2021/09/20 08:58:26;;;;;;;15.93;7.92;;;;;;;14.49;71.11;100990.53;1643819;87;21604;-78
2021/09/20 09:00:54;;;;;;;17.27;8.30;;;;;;;14.46;70.62;100988.21;1644528;87;21032;-78
2021/09/20 09:03:23;;;;;;;7.72;4.75;;;;;;;14.34;70.01;100989.67;1647942;86;21396;-75
2021/09/20 09:05:49;;;;;;;6.53;3.33;;;;;;;14.34;70.01;100989.67;1613142;87;21130;-74
2021/09/20 09:08:18;;;;;;;9.83;4.47;;;;;;;14.49;69.80;100990.53;1648468;86;21034;-75
2021/09/20 09:10:44;;;;;;;8.08;4.55;;;;;;;14.62;69.56;100994.46;1638644;85;21123;-75
2021/09/20 09:13:11;;;;;;;6.22;3.33;;;;;;;14.73;69.27;100999.40;1634758;86;21079;-75
2021/09/20 09:15:37;;;;;;;11.50;5.50;;;;;;;14.50;68.69;101002.94;1644756;86;21530;-74
2021/09/20 09:18:04;;;;;;;8.20;5.10;;;;;;;14.36;68.43;100997.02;1638589;86;21086;-78
2021/09/20 09:20:38;;;;;;;6.65;4.35;;;;;;;14.46;68.10;101001.62;1630306;87;21984;-79
2021/09/20 09:23:08;;;;;;;11.60;4.28;;;;;;;14.46;68.10;101001.62;1634194;87;21055;-78
2021/09/20 09:25:40;;;;;;;9.90;4.42;;;;;;;14.59;68.14;100997.52;1600435;88;21543;-78
2021/09/20 09:28:28;;;;;;;5.45;4.25;;;;;;;14.80;67.86;100993.63;1650844;85;21805;-77
2021/09/20 09:30:57;;;;;;;5.72;3.58;;;;;;;14.97;67.59;101000.50;1624734;87;21122;-77
2021/09/20 09:33:39;;;;;;;7.83;4.70;;;;;;;14.91;67.14;100995.88;1601477;87;21162;-77
2021/09/20 09:36:05;;;;;;;8.33;4.30;;;;;;;14.97;67.09;100993.78;1595271;89;21108;-77
2021/09/20 09:38:32;;;;;;;16.42;6.08;;;;;;;15.05;66.79;100995.05;1595417;89;21119;-77
2021/09/20 09:41:00;;;;;;;6.35;4.75;;;;;;;15.15;66.76;100994.77;1646936;85;21559;-78
2021/09/20 09:43:40;;;;;;;10.50;4.92;;;;;;;15.24;66.47;100989.11;1654483;85;21100;-77
2021/09/20 09:46:20;;;;;;;;;;;;;;;15.22;66.19;100995.19;1604863;88;21575;-77
2021/09/20 09:48:46;;;;;;;13.65;6.05;;;;;;;15.15;66.01;100994.27;1640989;87;28326;-77
2021/09/20 09:51:12;;;;;;;10.20;4.65;;;;;;;15.41;65.96;100989.23;1642626;87;21056;-77
2021/09/20 09:53:44;;;;;;;11.78;6.30;;;;;;;15.67;65.77;100993.31;1642877;87;21123;-77
2021/09/20 09:56:21;;;;;;;11.65;6.03;;;;;;;15.82;65.69;100995.47;1643506;85;21028;-77
2021/09/20 09:58:59;;;;;;;6.47;4.40;;;;;;;15.98;65.41;100992.03;1642501;87;21172;-77
2021/09/20 10:01:34;;;;;;;5.17;3.70;;;;;;;15.85;65.12;100996.44;1645954;87;21393;-77
2021/09/20 10:04:13;;;;;;;11.88;5.42;;;;;;;15.63;64.94;101000.09;1645793;87;21016;-77
2021/09/20 10:06:47;;;;;;;7.97;4.62;;;;;;;15.54;64.78;101003.41;1646406;87;21607;-77
2021/09/20 10:09:18;;;;;;;9.78;5.92;;;;;;;15.49;64.66;101001.27;1644981;87;21596;-77
2021/09/20 10:11:46;;;;;;;7.55;3.98;;;;;;;15.46;64.48;100996.24;1644706;85;21903;-77
2021/09/20 10:14:12;;;;;;;6.28;3.58;;;;;;;15.44;64.30;100995.61;1646358;87;21388;-77
2021/09/20 10:16:38;;;;;;;7.40;4.10;;;;;;;15.35;64.04;101003.42;1645697;87;21750;-77
2021/09/20 10:19:04;;;;;;;7.30;3.95;;;;;;;15.26;63.83;101001.87;1643840;87;21671;-77
2021/09/20 10:21:31;;;;;;;7.22;3.90;;;;;;;15.28;63.78;101006.53;1640615;87;21097;-77
2021/09/20 10:23:58;;;;;;;5.47;3.60;;;;;;;15.17;63.54;101011.52;1637417;87;21163;-77
2021/09/20 10:26:25;;;;;;;4.83;3.90;;;;;;;15.00;63.44;101001.47;1593961;90;21027;-77
2021/09/20 10:28:58;;;;;;;7.92;4.10;;;;;;;14.97;63.42;101001.84;1619801;88;21046;-77
2021/09/20 10:31:25;;;;;;;8.90;3.70;;;;;;;14.93;63.33;101007.25;1621856;87;21054;-77
2021/09/20 10:34:24;;;;;;;5.45;3.92;;;;;;;14.91;63.21;101001.23;1593042;90;21577;-76
2021/09/20 10:36:54;;;;;;;3.77;2.40;;;;;;;14.93;63.08;101008.59;1565514;91;21174;-77
2021/09/20 10:40:01;;;;;;;5.28;2.87;;;;;;;14.93;62.93;101008.09;1607258;87;21081;-77
2021/09/20 10:42:46;;;;;;;4.30;2.80;;;;;;;14.93;62.77;101009.94;1622086;87;21036;-76
2021/09/20 10:45:43;;;;;;;6.20;3.65;;;;;;;14.94;62.60;101011.61;1636024;87;21060;-76
2021/09/20 10:48:27;;;;;;;7.67;4.28;;;;;;;15.07;62.53;101011.80;1635998;87;21080;-76
2021/09/20 10:51:04;;;;;;;6.78;3.47;;;;;;;15.22;62.49;101011.81;1624206;87;21101;-77
2021/09/20 10:53:33;;;;;;;6.65;3.30;;;;;;;15.23;62.43;101008.96;1621125;88;21013;-77
2021/09/20 10:56:08;;;;;;;4.22;2.47;;;;;;;15.07;62.05;100998.38;1621006;88;21049;-77
2021/09/20 10:58:44;;;;;;;3.25;2.60;;;;;;;15.07;62.05;100998.38;1624555;87;21021;-77
2021/09/20 11:01:16;;;;;;;4.15;2.40;;;;;;;15.09;62.09;101023.22;1597363;87;21010;-76
2021/09/20 11:04:00;;;;;;;3.37;2.17;;;;;;;15.10;61.99;101028.89;1633076;87;21106;-76
2021/09/20 11:06:32;;;;;;;5.40;2.85;;;;;;;15.05;61.78;101021.91;1630475;87;21538;-77
2021/09/20 11:09:07;;;;;;;5.62;2.72;;;;;;;14.96;61.63;101009.06;1605507;87;21497;-76
2021/09/20 11:11:44;;;;;;;3.55;2.30;;;;;;;15.08;61.50;101016.17;1619047;87;21038;-76
2021/09/20 11:14:22;;;;;;;5.03;2.67;;;;;;;15.09;61.36;101008.95;1649132;87;21539;-76
2021/09/20 11:17:02;;;;;;;4.35;2.85;;;;;;;15.13;61.28;101008.38;1649196;87;21201;-76
2021/09/20 11:19:33;;;;;;;5.97;3.08;;;;;;;15.25;61.14;101012.78;1641800;87;21084;-76
2021/09/20 11:22:12;;;;;;;4.70;3.27;;;;;;;15.31;61.10;101016.91;1626634;87;21533;-76
2021/09/20 11:24:48;;;;;;;6.50;3.83;;;;;;;15.42;61.01;101016.45;1615770;87;21096;-76